sensor_id;sensor_type;location;lat;lon;timestamp;P1;durP1;ratioP1;P2;durP2;ratioP2
38785;SDS011;24535;45.508;12.252;2024-03-06T00:01:50;35.95;;;26.45;;
38785;SDS011;24535;45.508;12.252;2024-03-06T00:04:18;35.47;;;27.20;;
38785;SDS011;24535;45.508;12.252;2024-03-06T00:21:56;33.67;;;25.35;;
38785;SDS011;24535;45.508;12.252;2024-03-06T00:24:34;31.13;;;25.08;;
38785;SDS011;24535;45.508;12.252;2024-03-06T00:27:22;39.45;;;28.50;;
38785;SDS011;24535;45.508;12.252;2024-03-06T00:30:07;36.45;;;27.90;;
38785;SDS011;24535;45.508;12.252;2024-03-06T00:32:42;35.65;;;29.20;;
38785;SDS011;24535;45.508;12.252;2024-03-06T01:10:26;38.25;;;28.38;;
38785;SDS011;24535;45.508;12.252;2024-03-06T01:13:00;39.20;;;28.08;;
38785;SDS011;24535;45.508;12.252;2024-03-06T01:15:34;30.45;;;25.63;;
38785;SDS011;24535;45.508;12.252;2024-03-06T01:27:18;24.55;;;19.17;;
38785;SDS011;24535;45.508;12.252;2024-03-06T01:29:44;24.30;;;17.75;;
38785;SDS011;24535;45.508;12.252;2024-03-06T01:32:09;23.55;;;17.20;;
38785;SDS011;24535;45.508;12.252;2024-03-06T01:34:38;20.92;;;15.77;;
38785;SDS011;24535;45.508;12.252;2024-03-06T01:37:09;21.92;;;15.35;;
38785;SDS011;24535;45.508;12.252;2024-03-06T01:39:34;22.35;;;16.00;;
38785;SDS011;24535;45.508;12.252;2024-03-06T01:42:07;17.50;;;13.75;;
38785;SDS011;24535;45.508;12.252;2024-03-06T01:44:42;17.98;;;14.60;;
38785;SDS011;24535;45.508;12.252;2024-03-06T01:47:13;20.67;;;12.77;;
38785;SDS011;24535;45.508;12.252;2024-03-06T01:49:42;17.02;;;13.32;;
38785;SDS011;24535;45.508;12.252;2024-03-06T01:52:08;16.40;;;11.32;;
38785;SDS011;24535;45.508;12.252;2024-03-06T01:54:37;14.73;;;10.35;;
38785;SDS011;24535;45.508;12.252;2024-03-06T01:57:04;12.98;;;10.77;;
38785;SDS011;24535;45.508;12.252;2024-03-06T01:59:32;14.65;;;9.85;;
38785;SDS011;24535;45.508;12.252;2024-03-06T02:01:58;18.13;;;10.02;;
38785;SDS011;24535;45.508;12.252;2024-03-06T02:04:26;14.30;;;8.73;;
38785;SDS011;24535;45.508;12.252;2024-03-06T02:06:53;11.48;;;8.18;;
38785;SDS011;24535;45.508;12.252;2024-03-06T02:09:19;10.90;;;8.48;;
38785;SDS011;24535;45.508;12.252;2024-03-06T02:11:45;13.48;;;9.07;;
38785;SDS011;24535;45.508;12.252;2024-03-06T02:14:11;13.32;;;8.35;;
38785;SDS011;24535;45.508;12.252;2024-03-06T02:16:36;13.02;;;7.95;;
38785;SDS011;24535;45.508;12.252;2024-03-06T02:19:05;13.13;;;8.30;;
38785;SDS011;24535;45.508;12.252;2024-03-06T02:21:31;10.52;;;7.05;;
38785;SDS011;24535;45.508;12.252;2024-03-06T02:23:56;13.57;;;8.20;;
38785;SDS011;24535;45.508;12.252;2024-03-06T02:26:22;10.00;;;7.30;;
38785;SDS011;24535;45.508;12.252;2024-03-06T02:28:48;13.75;;;7.70;;
38785;SDS011;24535;45.508;12.252;2024-03-06T02:31:15;10.55;;;7.47;;
38785;SDS011;24535;45.508;12.252;2024-03-06T02:36:11;9.50;;;6.97;;
38785;SDS011;24535;45.508;12.252;2024-03-06T02:38:39;13.35;;;7.05;;
38785;SDS011;24535;45.508;12.252;2024-03-06T02:41:05;12.77;;;6.70;;
38785;SDS011;24535;45.508;12.252;2024-03-06T02:43:32;11.23;;;7.22;;
38785;SDS011;24535;45.508;12.252;2024-03-06T02:46:00;10.50;;;8.25;;
38785;SDS011;24535;45.508;12.252;2024-03-06T02:50:57;11.18;;;7.72;;
38785;SDS011;24535;45.508;12.252;2024-03-06T02:53:26;11.85;;;6.97;;
38785;SDS011;24535;45.508;12.252;2024-03-06T02:55:52;17.90;;;8.65;;
38785;SDS011;24535;45.508;12.252;2024-03-06T02:58:18;10.82;;;7.25;;
38785;SDS011;24535;45.508;12.252;2024-03-06T03:00:43;16.80;;;8.75;;
38785;SDS011;24535;45.508;12.252;2024-03-06T03:03:09;15.77;;;8.85;;
38785;SDS011;24535;45.508;12.252;2024-03-06T03:05:37;10.77;;;7.78;;
38785;SDS011;24535;45.508;12.252;2024-03-06T03:08:03;13.93;;;8.23;;
38785;SDS011;24535;45.508;12.252;2024-03-06T03:10:29;11.13;;;8.23;;
38785;SDS011;24535;45.508;12.252;2024-03-06T03:13:10;13.80;;;8.50;;
38785;SDS011;24535;45.508;12.252;2024-03-06T03:15:53;12.30;;;8.65;;
38785;SDS011;24535;45.508;12.252;2024-03-06T03:18:28;12.55;;;8.73;;
38785;SDS011;24535;45.508;12.252;2024-03-06T03:20:54;13.02;;;8.95;;
38785;SDS011;24535;45.508;12.252;2024-03-06T03:23:19;13.23;;;9.10;;
38785;SDS011;24535;45.508;12.252;2024-03-06T03:25:50;17.83;;;9.70;;
38785;SDS011;24535;45.508;12.252;2024-03-06T03:30:49;11.27;;;8.65;;
38785;SDS011;24535;45.508;12.252;2024-03-06T03:33:26;14.15;;;8.27;;
38785;SDS011;24535;45.508;12.252;2024-03-06T03:35:52;13.88;;;8.75;;
38785;SDS011;24535;45.508;12.252;2024-03-06T03:38:17;17.52;;;9.40;;
38785;SDS011;24535;45.508;12.252;2024-03-06T03:40:46;11.37;;;7.90;;
38785;SDS011;24535;45.508;12.252;2024-03-06T03:43:11;16.98;;;8.68;;
38785;SDS011;24535;45.508;12.252;2024-03-06T03:45:37;11.45;;;7.72;;
38785;SDS011;24535;45.508;12.252;2024-03-06T03:48:02;14.10;;;7.47;;
38785;SDS011;24535;45.508;12.252;2024-03-06T03:50:34;11.13;;;6.70;;
38785;SDS011;24535;45.508;12.252;2024-03-06T03:52:59;11.23;;;6.33;;
38785;SDS011;24535;45.508;12.252;2024-03-06T03:55:26;14.57;;;6.10;;
38785;SDS011;24535;45.508;12.252;2024-03-06T03:57:52;10.18;;;5.82;;
38785;SDS011;24535;45.508;12.252;2024-03-06T04:00:18;10.50;;;5.28;;
38785;SDS011;24535;45.508;12.252;2024-03-06T04:02:44;11.40;;;5.13;;
38785;SDS011;24535;45.508;12.252;2024-03-06T04:05:10;7.30;;;4.65;;
38785;SDS011;24535;45.508;12.252;2024-03-06T04:07:36;10.68;;;5.07;;
38785;SDS011;24535;45.508;12.252;2024-03-06T04:10:04;9.50;;;4.65;;
38785;SDS011;24535;45.508;12.252;2024-03-06T04:12:31;8.25;;;3.78;;
38785;SDS011;24535;45.508;12.252;2024-03-06T04:14:56;10.77;;;3.67;;
38785;SDS011;24535;45.508;12.252;2024-03-06T04:17:22;6.97;;;3.80;;
38785;SDS011;24535;45.508;12.252;2024-03-06T04:19:47;10.70;;;3.50;;
38785;SDS011;24535;45.508;12.252;2024-03-06T04:22:13;6.35;;;2.65;;
38785;SDS011;24535;45.508;12.252;2024-03-06T04:24:46;14.50;;;3.28;;
38785;SDS011;24535;45.508;12.252;2024-03-06T04:27:12;8.23;;;2.83;;
38785;SDS011;24535;45.508;12.252;2024-03-06T04:29:37;5.43;;;2.40;;
38785;SDS011;24535;45.508;12.252;2024-03-06T04:32:03;7.43;;;2.65;;
38785;SDS011;24535;45.508;12.252;2024-03-06T04:34:32;12.68;;;2.85;;
38785;SDS011;24535;45.508;12.252;2024-03-06T04:36:57;9.30;;;2.55;;
38785;SDS011;24535;45.508;12.252;2024-03-06T04:39:25;6.45;;;2.03;;
38785;SDS011;24535;45.508;12.252;2024-03-06T04:41:51;7.32;;;2.72;;
38785;SDS011;24535;45.508;12.252;2024-03-06T04:44:19;6.13;;;2.03;;
38785;SDS011;24535;45.508;12.252;2024-03-06T04:46:50;10.98;;;1.95;;
38785;SDS011;24535;45.508;12.252;2024-03-06T04:49:34;8.38;;;2.40;;
38785;SDS011;24535;45.508;12.252;2024-03-06T04:51:59;5.32;;;1.88;;
38785;SDS011;24535;45.508;12.252;2024-03-06T04:54:26;10.88;;;2.22;;
38785;SDS011;24535;45.508;12.252;2024-03-06T04:56:51;10.40;;;1.90;;
38785;SDS011;24535;45.508;12.252;2024-03-06T04:59:18;5.18;;;2.00;;
38785;SDS011;24535;45.508;12.252;2024-03-06T05:01:44;7.80;;;2.30;;
38785;SDS011;24535;45.508;12.252;2024-03-06T05:04:09;5.22;;;1.80;;
38785;SDS011;24535;45.508;12.252;2024-03-06T05:06:36;7.13;;;2.47;;
38785;SDS011;24535;45.508;12.252;2024-03-06T05:09:02;8.18;;;2.42;;
38785;SDS011;24535;45.508;12.252;2024-03-06T05:11:45;7.00;;;2.33;;
38785;SDS011;24535;45.508;12.252;2024-03-06T05:14:10;5.00;;;2.28;;
38785;SDS011;24535;45.508;12.252;2024-03-06T05:16:36;7.60;;;3.28;;
38785;SDS011;24535;45.508;12.252;2024-03-06T05:19:01;9.02;;;3.50;;
38785;SDS011;24535;45.508;12.252;2024-03-06T05:21:29;9.95;;;3.35;;
38785;SDS011;24535;45.508;12.252;2024-03-06T05:24:04;10.48;;;3.60;;
38785;SDS011;24535;45.508;12.252;2024-03-06T05:26:32;9.00;;;3.80;;
38785;SDS011;24535;45.508;12.252;2024-03-06T05:28:58;7.05;;;3.53;;
38785;SDS011;24535;45.508;12.252;2024-03-06T05:31:23;13.60;;;4.15;;
38785;SDS011;24535;45.508;12.252;2024-03-06T05:33:51;9.68;;;4.20;;
38785;SDS011;24535;45.508;12.252;2024-03-06T05:36:16;10.57;;;4.32;;
38785;SDS011;24535;45.508;12.252;2024-03-06T05:38:42;9.23;;;4.38;;
38785;SDS011;24535;45.508;12.252;2024-03-06T05:41:09;9.95;;;4.78;;
38785;SDS011;24535;45.508;12.252;2024-03-06T05:43:34;16.70;;;5.95;;
38785;SDS011;24535;45.508;12.252;2024-03-06T05:45:59;11.07;;;5.50;;
38785;SDS011;24535;45.508;12.252;2024-03-06T05:48:25;10.95;;;5.95;;
38785;SDS011;24535;45.508;12.252;2024-03-06T05:50:54;9.10;;;4.70;;
38785;SDS011;24535;45.508;12.252;2024-03-06T05:53:19;12.30;;;5.68;;
38785;SDS011;24535;45.508;12.252;2024-03-06T05:55:45;10.52;;;6.10;;
38785;SDS011;24535;45.508;12.252;2024-03-06T05:58:11;11.30;;;6.38;;
38785;SDS011;24535;45.508;12.252;2024-03-06T06:00:36;10.52;;;6.18;;
38785;SDS011;24535;45.508;12.252;2024-03-06T06:03:03;12.80;;;7.45;;
38785;SDS011;24535;45.508;12.252;2024-03-06T06:05:28;8.70;;;6.22;;
38785;SDS011;24535;45.508;12.252;2024-03-06T06:07:54;12.25;;;6.85;;
38785;SDS011;24535;45.508;12.252;2024-03-06T06:10:19;11.85;;;6.55;;
38785;SDS011;24535;45.508;12.252;2024-03-06T06:12:45;11.63;;;6.45;;
38785;SDS011;24535;45.508;12.252;2024-03-06T06:15:10;10.13;;;6.80;;
38785;SDS011;24535;45.508;12.252;2024-03-06T06:17:36;16.85;;;6.78;;
38785;SDS011;24535;45.508;12.252;2024-03-06T06:20:03;14.90;;;6.57;;
38785;SDS011;24535;45.508;12.252;2024-03-06T06:22:34;13.27;;;7.25;;
38785;SDS011;24535;45.508;12.252;2024-03-06T06:25:03;9.63;;;7.05;;
38785;SDS011;24535;45.508;12.252;2024-03-06T06:27:29;19.95;;;7.38;;
38785;SDS011;24535;45.508;12.252;2024-03-06T06:29:54;10.95;;;7.40;;
38785;SDS011;24535;45.508;12.252;2024-03-06T06:32:20;15.70;;;8.43;;
38785;SDS011;24535;45.508;12.252;2024-03-06T06:34:46;11.95;;;8.57;;
38785;SDS011;24535;45.508;12.252;2024-03-06T06:37:11;16.80;;;8.70;;
38785;SDS011;24535;45.508;12.252;2024-03-06T06:39:37;17.08;;;9.82;;
38785;SDS011;24535;45.508;12.252;2024-03-06T06:42:04;15.05;;;8.93;;
38785;SDS011;24535;45.508;12.252;2024-03-06T06:44:30;14.07;;;9.20;;
38785;SDS011;24535;45.508;12.252;2024-03-06T06:46:55;14.25;;;9.43;;
38785;SDS011;24535;45.508;12.252;2024-03-06T06:49:24;14.10;;;8.77;;
38785;SDS011;24535;45.508;12.252;2024-03-06T06:51:54;17.77;;;8.52;;
38785;SDS011;24535;45.508;12.252;2024-03-06T06:54:20;16.00;;;9.70;;
38785;SDS011;24535;45.508;12.252;2024-03-06T06:56:45;13.38;;;8.32;;
38785;SDS011;24535;45.508;12.252;2024-03-06T06:59:10;11.95;;;9.20;;
38785;SDS011;24535;45.508;12.252;2024-03-06T07:01:38;13.65;;;8.95;;
38785;SDS011;24535;45.508;12.252;2024-03-06T07:04:05;14.18;;;8.98;;
38785;SDS011;24535;45.508;12.252;2024-03-06T07:06:31;12.82;;;8.10;;
38785;SDS011;24535;45.508;12.252;2024-03-06T07:08:56;12.75;;;8.38;;
38785;SDS011;24535;45.508;12.252;2024-03-06T07:11:22;17.73;;;9.75;;
38785;SDS011;24535;45.508;12.252;2024-03-06T07:13:48;14.32;;;9.85;;
38785;SDS011;24535;45.508;12.252;2024-03-06T07:16:13;11.50;;;8.63;;
38785;SDS011;24535;45.508;12.252;2024-03-06T07:18:39;14.52;;;8.45;;
38785;SDS011;24535;45.508;12.252;2024-03-06T07:21:05;15.70;;;8.50;;
38785;SDS011;24535;45.508;12.252;2024-03-06T07:23:31;11.57;;;7.25;;
38785;SDS011;24535;45.508;12.252;2024-03-06T07:25:56;13.90;;;8.10;;
38785;SDS011;24535;45.508;12.252;2024-03-06T07:31:38;10.25;;;7.25;;
38785;SDS011;24535;45.508;12.252;2024-03-06T07:34:13;12.35;;;7.38;;
38785;SDS011;24535;45.508;12.252;2024-03-06T07:36:48;13.20;;;7.40;;
38785;SDS011;24535;45.508;12.252;2024-03-06T07:39:23;10.57;;;7.22;;
38785;SDS011;24535;45.508;12.252;2024-03-06T07:41:49;7.68;;;6.30;;
38785;SDS011;24535;45.508;12.252;2024-03-06T07:44:14;9.27;;;6.88;;
38785;SDS011;24535;45.508;12.252;2024-03-06T07:46:40;13.98;;;7.68;;
38785;SDS011;24535;45.508;12.252;2024-03-06T07:49:09;12.00;;;6.53;;
38785;SDS011;24535;45.508;12.252;2024-03-06T07:51:35;10.60;;;6.70;;
38785;SDS011;24535;45.508;12.252;2024-03-06T07:54:01;11.50;;;6.78;;
38785;SDS011;24535;45.508;12.252;2024-03-06T07:56:35;9.13;;;6.72;;
38785;SDS011;24535;45.508;12.252;2024-03-06T07:59:00;7.15;;;6.20;;
38785;SDS011;24535;45.508;12.252;2024-03-06T08:01:33;14.15;;;6.53;;
38785;SDS011;24535;45.508;12.252;2024-03-06T08:04:02;11.52;;;6.45;;
38785;SDS011;24535;45.508;12.252;2024-03-06T08:06:27;9.02;;;6.40;;
38785;SDS011;24535;45.508;12.252;2024-03-06T08:08:54;11.73;;;6.70;;
38785;SDS011;24535;45.508;12.252;2024-03-06T08:11:41;10.20;;;6.05;;
38785;SDS011;24535;45.508;12.252;2024-03-06T08:14:07;10.45;;;6.70;;
38785;SDS011;24535;45.508;12.252;2024-03-06T08:16:33;13.05;;;6.75;;
38785;SDS011;24535;45.508;12.252;2024-03-06T08:18:59;12.88;;;6.97;;
38785;SDS011;24535;45.508;12.252;2024-03-06T08:22:10;9.65;;;5.60;;
38785;SDS011;24535;45.508;12.252;2024-03-06T08:24:20;9.07;;;5.15;;
38785;SDS011;24535;45.508;12.252;2024-03-06T08:34:11;15.07;;;5.35;;
38785;SDS011;24535;45.508;12.252;2024-03-06T08:36:36;11.43;;;5.40;;
38785;SDS011;24535;45.508;12.252;2024-03-06T08:41:51;9.65;;;4.18;;
38785;SDS011;24535;45.508;12.252;2024-03-06T08:44:17;7.33;;;3.80;;
38785;SDS011;24535;45.508;12.252;2024-03-06T08:49:58;10.18;;;4.78;;
38785;SDS011;24535;45.508;12.252;2024-03-06T08:52:24;10.38;;;4.47;;
38785;SDS011;24535;45.508;12.252;2024-03-06T08:54:49;9.48;;;3.40;;
38785;SDS011;24535;45.508;12.252;2024-03-06T08:57:14;7.82;;;3.40;;
38785;SDS011;24535;45.508;12.252;2024-03-06T08:59:41;5.22;;;3.00;;
38785;SDS011;24535;45.508;12.252;2024-03-06T09:02:12;7.18;;;3.20;;
38785;SDS011;24535;45.508;12.252;2024-03-06T09:04:42;9.65;;;3.63;;
38785;SDS011;24535;45.508;12.252;2024-03-06T09:07:08;6.03;;;2.67;;
38785;SDS011;24535;45.508;12.252;2024-03-06T09:09:34;7.25;;;2.40;;
38785;SDS011;24535;45.508;12.252;2024-03-06T09:12:08;6.55;;;2.83;;
38785;SDS011;24535;45.508;12.252;2024-03-06T09:14:53;8.43;;;2.72;;
38785;SDS011;24535;45.508;12.252;2024-03-06T09:17:18;3.15;;;2.40;;
38785;SDS011;24535;45.508;12.252;2024-03-06T09:19:47;6.10;;;2.50;;
38785;SDS011;24535;45.508;12.252;2024-03-06T09:22:12;4.22;;;2.35;;
38785;SDS011;24535;45.508;12.252;2024-03-06T09:24:41;8.02;;;2.88;;
38785;SDS011;24535;45.508;12.252;2024-03-06T09:32:17;9.23;;;3.30;;
38785;SDS011;24535;45.508;12.252;2024-03-06T09:34:47;5.68;;;3.28;;
38785;SDS011;24535;45.508;12.252;2024-03-06T09:37:13;6.95;;;3.50;;
38785;SDS011;24535;45.508;12.252;2024-03-06T09:39:39;6.70;;;3.85;;
38785;SDS011;24535;45.508;12.252;2024-03-06T09:42:05;7.85;;;3.92;;
38785;SDS011;24535;45.508;12.252;2024-03-06T09:44:38;9.60;;;4.80;;
38785;SDS011;24535;45.508;12.252;2024-03-06T09:47:04;9.77;;;4.43;;
38785;SDS011;24535;45.508;12.252;2024-03-06T09:49:31;9.45;;;4.38;;
38785;SDS011;24535;45.508;12.252;2024-03-06T09:52:00;11.13;;;6.03;;
38785;SDS011;24535;45.508;12.252;2024-03-06T09:54:28;11.23;;;5.18;;
38785;SDS011;24535;45.508;12.252;2024-03-06T09:56:54;9.70;;;4.43;;
38785;SDS011;24535;45.508;12.252;2024-03-06T09:59:22;8.80;;;3.95;;
38785;SDS011;24535;45.508;12.252;2024-03-06T10:01:49;9.35;;;3.55;;
38785;SDS011;24535;45.508;12.252;2024-03-06T10:04:27;8.35;;;3.33;;
38785;SDS011;24535;45.508;12.252;2024-03-06T10:06:54;9.35;;;3.35;;
38785;SDS011;24535;45.508;12.252;2024-03-06T10:09:23;6.95;;;3.45;;
38785;SDS011;24535;45.508;12.252;2024-03-06T10:11:50;6.90;;;3.40;;
38785;SDS011;24535;45.508;12.252;2024-03-06T10:14:18;7.25;;;3.13;;
38785;SDS011;24535;45.508;12.252;2024-03-06T10:16:54;7.03;;;2.88;;
38785;SDS011;24535;45.508;12.252;2024-03-06T10:19:41;6.22;;;3.15;;
38785;SDS011;24535;45.508;12.252;2024-03-06T10:22:13;6.45;;;4.30;;
38785;SDS011;24535;45.508;12.252;2024-03-06T10:27:26;5.05;;;3.33;;
38785;SDS011;24535;45.508;12.252;2024-03-06T10:30:04;7.45;;;3.80;;
38785;SDS011;24535;45.508;12.252;2024-03-06T10:32:31;5.97;;;3.50;;
38785;SDS011;24535;45.508;12.252;2024-03-06T10:35:49;7.30;;;3.13;;
38785;SDS011;24535;45.508;12.252;2024-03-06T10:38:17;9.18;;;3.78;;
38785;SDS011;24535;45.508;12.252;2024-03-06T10:40:45;9.80;;;3.85;;
38785;SDS011;24535;45.508;12.252;2024-03-06T10:48:26;11.48;;;4.88;;
38785;SDS011;24535;45.508;12.252;2024-03-06T10:50:53;10.93;;;5.15;;
38785;SDS011;24535;45.508;12.252;2024-03-06T10:53:22;9.50;;;5.55;;
38785;SDS011;24535;45.508;12.252;2024-03-06T10:55:54;12.85;;;5.90;;
38785;SDS011;24535;45.508;12.252;2024-03-06T10:58:25;9.45;;;4.75;;
38785;SDS011;24535;45.508;12.252;2024-03-06T11:00:52;10.77;;;5.93;;
38785;SDS011;24535;45.508;12.252;2024-03-06T11:03:20;9.63;;;4.95;;
38785;SDS011;24535;45.508;12.252;2024-03-06T11:05:46;10.00;;;5.30;;
38785;SDS011;24535;45.508;12.252;2024-03-06T11:08:16;9.35;;;5.07;;
38785;SDS011;24535;45.508;12.252;2024-03-06T11:10:42;9.10;;;5.07;;
38785;SDS011;24535;45.508;12.252;2024-03-06T11:13:23;11.75;;;5.30;;
38785;SDS011;24535;45.508;12.252;2024-03-06T11:23:35;11.13;;;6.10;;
38785;SDS011;24535;45.508;12.252;2024-03-06T11:26:54;8.13;;;4.63;;
38785;SDS011;24535;45.508;12.252;2024-03-06T11:32:04;7.90;;;4.60;;
38785;SDS011;24535;45.508;12.252;2024-03-06T11:34:33;8.20;;;4.78;;
38785;SDS011;24535;45.508;12.252;2024-03-06T11:37:02;8.60;;;4.00;;
38785;SDS011;24535;45.508;12.252;2024-03-06T11:39:41;6.30;;;4.45;;
38785;SDS011;24535;45.508;12.252;2024-03-06T11:42:10;6.85;;;4.53;;
38785;SDS011;24535;45.508;12.252;2024-03-06T11:44:56;8.90;;;4.40;;
38785;SDS011;24535;45.508;12.252;2024-03-06T11:47:22;8.98;;;4.60;;
38785;SDS011;24535;45.508;12.252;2024-03-06T11:49:47;12.63;;;5.35;;
38785;SDS011;24535;45.508;12.252;2024-03-06T11:52:14;8.43;;;5.35;;
38785;SDS011;24535;45.508;12.252;2024-03-06T11:54:40;12.38;;;6.07;;
38785;SDS011;24535;45.508;12.252;2024-03-06T11:57:05;12.05;;;6.15;;
38785;SDS011;24535;45.508;12.252;2024-03-06T11:59:32;7.45;;;4.22;;
38785;SDS011;24535;45.508;12.252;2024-03-06T12:02:03;8.75;;;5.03;;
38785;SDS011;24535;45.508;12.252;2024-03-06T12:04:37;9.13;;;5.15;;
38785;SDS011;24535;45.508;12.252;2024-03-06T12:07:03;9.40;;;5.65;;
38785;SDS011;24535;45.508;12.252;2024-03-06T12:09:30;9.18;;;4.97;;
38785;SDS011;24535;45.508;12.252;2024-03-06T12:12:04;9.02;;;5.15;;
38785;SDS011;24535;45.508;12.252;2024-03-06T12:14:34;7.07;;;4.88;;
38785;SDS011;24535;45.508;12.252;2024-03-06T12:17:03;9.82;;;5.25;;
38785;SDS011;24535;45.508;12.252;2024-03-06T12:19:38;8.23;;;5.82;;
38785;SDS011;24535;45.508;12.252;2024-03-06T12:22:03;6.15;;;4.97;;
38785;SDS011;24535;45.508;12.252;2024-03-06T12:24:44;10.70;;;6.18;;
38785;SDS011;24535;45.508;12.252;2024-03-06T12:27:09;6.17;;;4.87;;
38785;SDS011;24535;45.508;12.252;2024-03-06T12:29:35;8.20;;;5.68;;
38785;SDS011;24535;45.508;12.252;2024-03-06T12:32:15;8.20;;;5.82;;
38785;SDS011;24535;45.508;12.252;2024-03-06T12:34:58;9.95;;;6.70;;
38785;SDS011;24535;45.508;12.252;2024-03-06T12:37:31;8.38;;;5.90;;
38785;SDS011;24535;45.508;12.252;2024-03-06T12:42:35;10.38;;;6.40;;
38785;SDS011;24535;45.508;12.252;2024-03-06T12:45:04;7.35;;;5.88;;
38785;SDS011;24535;45.508;12.252;2024-03-06T12:47:30;8.82;;;6.30;;
38785;SDS011;24535;45.508;12.252;2024-03-06T12:50:01;8.48;;;5.85;;
38785;SDS011;24535;45.508;12.252;2024-03-06T12:52:27;10.18;;;5.40;;
38785;SDS011;24535;45.508;12.252;2024-03-06T12:54:56;8.98;;;5.93;;
38785;SDS011;24535;45.508;12.252;2024-03-06T12:57:21;9.02;;;5.57;;
38785;SDS011;24535;45.508;12.252;2024-03-06T12:59:47;9.05;;;6.47;;
38785;SDS011;24535;45.508;12.252;2024-03-06T13:02:12;10.68;;;6.55;;
38785;SDS011;24535;45.508;12.252;2024-03-06T13:04:47;11.20;;;6.38;;
38785;SDS011;24535;45.508;12.252;2024-03-06T13:07:23;8.90;;;6.18;;
38785;SDS011;24535;45.508;12.252;2024-03-06T13:09:48;9.10;;;6.03;;
38785;SDS011;24535;45.508;12.252;2024-03-06T13:12:19;9.52;;;5.20;;
38785;SDS011;24535;45.508;12.252;2024-03-06T13:14:51;10.65;;;5.05;;
38785;SDS011;24535;45.508;12.252;2024-03-06T13:17:16;8.07;;;4.90;;
38785;SDS011;24535;45.508;12.252;2024-03-06T13:19:43;6.78;;;5.03;;
38785;SDS011;24535;45.508;12.252;2024-03-06T13:25:11;9.10;;;5.97;;
38785;SDS011;24535;45.508;12.252;2024-03-06T13:27:42;8.45;;;5.97;;
38785;SDS011;24535;45.508;12.252;2024-03-06T13:30:07;8.35;;;4.97;;
38785;SDS011;24535;45.508;12.252;2024-03-06T13:32:34;8.10;;;5.13;;
38785;SDS011;24535;45.508;12.252;2024-03-06T13:35:00;6.22;;;4.70;;
38785;SDS011;24535;45.508;12.252;2024-03-06T13:37:25;5.68;;;4.43;;
38785;SDS011;24535;45.508;12.252;2024-03-06T13:39:54;8.07;;;4.75;;
38785;SDS011;24535;45.508;12.252;2024-03-06T13:42:23;7.57;;;4.47;;
38785;SDS011;24535;45.508;12.252;2024-03-06T13:44:49;5.40;;;4.63;;
38785;SDS011;24535;45.508;12.252;2024-03-06T13:47:14;8.77;;;4.50;;
38785;SDS011;24535;45.508;12.252;2024-03-06T13:49:48;7.82;;;5.05;;
38785;SDS011;24535;45.508;12.252;2024-03-06T13:52:23;7.15;;;4.78;;
38785;SDS011;24535;45.508;12.252;2024-03-06T13:55:02;10.23;;;5.07;;
38785;SDS011;24535;45.508;12.252;2024-03-06T13:57:36;7.57;;;3.80;;
38785;SDS011;24535;45.508;12.252;2024-03-06T14:00:11;8.27;;;4.32;;
38785;SDS011;24535;45.508;12.252;2024-03-06T14:02:43;6.75;;;3.92;;
38785;SDS011;24535;45.508;12.252;2024-03-06T14:05:18;7.38;;;4.15;;
38785;SDS011;24535;45.508;12.252;2024-03-06T14:07:49;7.03;;;4.03;;
38785;SDS011;24535;45.508;12.252;2024-03-06T14:13:22;6.65;;;3.53;;
38785;SDS011;24535;45.508;12.252;2024-03-06T14:22:37;6.10;;;3.63;;
38785;SDS011;24535;45.508;12.252;2024-03-06T14:35:48;7.45;;;3.10;;
38785;SDS011;24535;45.508;12.252;2024-03-06T14:38:32;6.10;;;3.22;;
38785;SDS011;24535;45.508;12.252;2024-03-06T14:49:48;4.68;;;3.13;;
38785;SDS011;24535;45.508;12.252;2024-03-06T15:19:29;5.65;;;3.08;;
38785;SDS011;24535;45.508;12.252;2024-03-06T15:21:57;5.57;;;2.60;;
38785;SDS011;24535;45.508;12.252;2024-03-06T15:24:33;3.67;;;2.05;;
38785;SDS011;24535;45.508;12.252;2024-03-06T15:27:07;3.10;;;2.00;;
38785;SDS011;24535;45.508;12.252;2024-03-06T15:29:49;3.75;;;2.30;;
38785;SDS011;24535;45.508;12.252;2024-03-06T15:35:35;4.50;;;2.38;;
38785;SDS011;24535;45.508;12.252;2024-03-06T15:38:24;5.13;;;2.65;;
38785;SDS011;24535;45.508;12.252;2024-03-06T15:40:52;4.60;;;2.25;;
38785;SDS011;24535;45.508;12.252;2024-03-06T15:43:34;3.50;;;2.08;;
38785;SDS011;24535;45.508;12.252;2024-03-06T15:46:29;6.85;;;1.85;;
38785;SDS011;24535;45.508;12.252;2024-03-06T15:48:58;6.20;;;2.28;;
38785;SDS011;24535;45.508;12.252;2024-03-06T15:51:36;3.08;;;1.77;;
38785;SDS011;24535;45.508;12.252;2024-03-06T15:54:02;5.10;;;2.28;;
38785;SDS011;24535;45.508;12.252;2024-03-06T15:56:31;4.75;;;2.10;;
38785;SDS011;24535;45.508;12.252;2024-03-06T15:58:57;5.68;;;2.63;;
38785;SDS011;24535;45.508;12.252;2024-03-06T16:01:48;3.88;;;2.05;;
38785;SDS011;24535;45.508;12.252;2024-03-06T16:04:57;5.38;;;2.38;;
38785;SDS011;24535;45.508;12.252;2024-03-06T16:15:47;3.72;;;2.10;;
38785;SDS011;24535;45.508;12.252;2024-03-06T16:18:25;3.72;;;2.13;;
38785;SDS011;24535;45.508;12.252;2024-03-06T16:24:38;3.47;;;1.90;;
38785;SDS011;24535;45.508;12.252;2024-03-06T16:27:04;3.10;;;1.92;;
38785;SDS011;24535;45.508;12.252;2024-03-06T16:29:43;3.13;;;2.13;;
38785;SDS011;24535;45.508;12.252;2024-03-06T16:32:40;3.00;;;2.38;;
38785;SDS011;24535;45.508;12.252;2024-03-06T16:35:06;3.45;;;2.53;;
38785;SDS011;24535;45.508;12.252;2024-03-06T16:37:33;7.50;;;2.65;;
38785;SDS011;24535;45.508;12.252;2024-03-06T16:40:08;4.25;;;2.47;;
38785;SDS011;24535;45.508;12.252;2024-03-06T16:45:17;3.90;;;2.38;;
38785;SDS011;24535;45.508;12.252;2024-03-06T16:47:46;5.18;;;2.58;;
38785;SDS011;24535;45.508;12.252;2024-03-06T16:50:30;3.30;;;2.00;;
38785;SDS011;24535;45.508;12.252;2024-03-06T16:52:59;4.05;;;2.38;;
38785;SDS011;24535;45.508;12.252;2024-03-06T16:55:33;3.33;;;2.40;;
38785;SDS011;24535;45.508;12.252;2024-03-06T17:00:35;3.20;;;1.95;;
38785;SDS011;24535;45.508;12.252;2024-03-06T17:45:19;4.70;;;2.97;;
38785;SDS011;24535;45.508;12.252;2024-03-06T17:47:58;5.07;;;3.40;;
38785;SDS011;24535;45.508;12.252;2024-03-06T17:59:03;5.20;;;2.78;;
38785;SDS011;24535;45.508;12.252;2024-03-06T18:02:02;4.28;;;2.70;;
38785;SDS011;24535;45.508;12.252;2024-03-06T18:04:28;5.35;;;3.33;;
38785;SDS011;24535;45.508;12.252;2024-03-06T18:06:59;3.65;;;2.75;;
38785;SDS011;24535;45.508;12.252;2024-03-06T18:18:03;3.15;;;2.10;;
38785;SDS011;24535;45.508;12.252;2024-03-06T18:20:35;6.15;;;2.58;;
38785;SDS011;24535;45.508;12.252;2024-03-06T18:36:14;2.78;;;1.90;;
38785;SDS011;24535;45.508;12.252;2024-03-06T18:39:02;4.90;;;2.67;;
38785;SDS011;24535;45.508;12.252;2024-03-06T18:50:28;7.55;;;3.28;;
38785;SDS011;24535;45.508;12.252;2024-03-06T18:56:13;4.65;;;2.80;;
38785;SDS011;24535;45.508;12.252;2024-03-06T19:18:14;4.43;;;2.55;;
38785;SDS011;24535;45.508;12.252;2024-03-06T19:20:40;3.92;;;2.65;;
38785;SDS011;24535;45.508;12.252;2024-03-06T19:25:58;7.03;;;3.00;;
38785;SDS011;24535;45.508;12.252;2024-03-06T19:28:24;5.20;;;2.22;;
38785;SDS011;24535;45.508;12.252;2024-03-06T19:30:50;6.85;;;3.00;;
38785;SDS011;24535;45.508;12.252;2024-03-06T19:33:25;8.25;;;3.75;;
38785;SDS011;24535;45.508;12.252;2024-03-06T19:38:50;4.03;;;2.22;;
38785;SDS011;24535;45.508;12.252;2024-03-06T19:41:19;2.78;;;2.03;;
38785;SDS011;24535;45.508;12.252;2024-03-06T19:43:44;3.20;;;1.98;;